Time;durP1;ratioP1;P1;durP2;ratioP2;P2;SDS_P1;SDS_P2;PMS_P1;PMS_P2;Temp;Humidity;BMP_temperature;BMP_pressure;BME280_temperature;BME280_humidity;BME280_pressure;Samples;Min_cycle;Max_cycle;Signal;HPM_P1;HPM_P2
2023/06/29 00:01:00;;;;;;;4.47;2.60;;;;;;;18.59;89.42;100077.91;5050767;28;20613;-59
2023/06/29 00:03:25;;;;;;;6.50;2.80;;;;;;;18.56;89.46;100075.41;5050299;28;20033;-59
2023/06/29 00:05:55;;;;;;;5.40;2.80;;;;;;;18.56;89.90;100079.94;5050126;28;20045;-59
2023/06/29 00:08:24;;;;;;;4.97;2.60;;;;;;;18.55;89.97;100075.53;5050675;28;20088;-59
2023/06/29 00:10:50;;;;;;;4.68;2.67;;;;;;;18.52;89.92;100073.03;5050848;28;20033;-59
2023/06/29 00:13:16;;;;;;;4.10;2.45;;;;;;;18.48;89.66;100079.56;5050380;28;20040;-58
2023/06/29 00:15:42;;;;;;;5.82;2.63;;;;;;;18.45;90.02;100074.38;5049845;28;20040;-58
2023/06/29 00:18:08;;;;;;;5.28;2.58;;;;;;;18.41;90.26;100068.31;5050392;28;20032;-59
2023/06/29 00:20:35;;;;;;;4.13;2.60;;;;;;;18.37;90.31;100067.59;5050188;28;20579;-59
2023/06/29 00:23:02;;;;;;;4.95;2.60;;;;;;;18.38;90.26;100072.00;5049544;28;20027;-59
2023/06/29 00:25:27;;;;;;;6.47;2.80;;;;;;;18.29;90.62;100053.75;5049360;28;20017;-59
2023/06/29 00:27:52;;;;;;;3.92;2.25;;;;;;;18.31;90.91;100070.69;5048740;28;20369;-58
2023/06/29 00:30:19;;;;;;;3.65;2.35;;;;;;;18.29;91.28;100059.16;5046799;28;20029;-60
2023/06/29 00:32:44;;;;;;;4.90;2.65;;;;;;;18.27;91.40;100058.38;5047670;28;20127;-59
2023/06/29 00:35:10;;;;;;;5.15;2.97;;;;;;;18.31;91.69;100059.03;5047900;28;20147;-59
2023/06/29 00:37:35;;;;;;;7.13;2.97;;;;;;;18.27;91.90;100061.06;5047954;28;20461;-60
2023/06/29 00:40:01;;;;;;;6.47;2.67;;;;;;;18.26;92.52;100048.56;5047004;28;20051;-59
2023/06/29 00:42:27;;;;;;;4.82;2.70;;;;;;;18.27;92.61;100044.91;5048787;28;20033;-59
2023/06/29 00:44:52;;;;;;;6.13;3.03;;;;;;;18.30;93.09;100044.72;5048605;28;20074;-59
2023/06/29 00:47:18;;;;;;;10.50;3.40;;;;;;;18.28;93.45;100041.28;5049381;28;20412;-59
2023/06/29 00:49:43;;;;;;;5.90;2.95;;;;;;;18.25;93.98;100038.75;5049691;28;20024;-59
2023/06/29 00:52:09;;;;;;;5.90;3.38;;;;;;;18.23;94.24;100032.63;5049402;28;20078;-58
2023/06/29 00:54:35;;;;;;;6.50;3.35;;;;;;;18.20;95.16;100035.47;5049969;28;20078;-59
2023/06/29 00:57:00;;;;;;;6.90;3.78;;;;;;;18.22;95.12;100036.25;5049961;28;20021;-59
2023/06/29 00:59:26;;;;;;;4.95;3.10;;;;;;;18.23;95.97;100032.63;5048011;28;20056;-60
2023/06/29 01:01:52;;;;;;;7.50;3.40;;;;;;;18.24;95.92;100034.34;5047923;28;20029;-65
2023/06/29 01:04:24;;;;;;;6.40;3.67;;;;;;;18.22;96.35;100036.25;5041058;28;20756;-63
2023/06/29 01:07:07;;;;;;;5.00;3.13;;;;;;;18.23;96.79;100032.63;5043841;28;20407;-65
2023/06/29 01:09:34;;;;;;;4.05;2.95;;;;;;;18.24;96.48;100031.66;5047494;28;20048;-64
2023/06/29 01:12:01;;;;;;;5.55;3.65;;;;;;;18.22;96.81;100030.00;5048654;28;20504;-64
2023/06/29 01:14:31;;;;;;;5.88;3.72;;;;;;;18.17;96.85;100027.59;5050058;28;20040;-65
2023/06/29 01:16:57;;;;;;;5.45;3.63;;;;;;;18.16;97.02;100030.41;5050022;28;20145;-65
2023/06/29 01:19:25;;;;;;;5.20;3.22;;;;;;;18.16;97.32;100033.97;5048691;28;20468;-64
2023/06/29 01:22:29;;;;;;;7.20;3.63;;;;;;;18.15;97.24;100029.53;5048080;28;20071;-65
2023/06/29 01:24:55;;;;;;;;;;;;;;;18.08;97.60;100022.81;5045245;28;20044;-64
2023/06/29 01:27:23;;;;;;;5.40;3.15;;;;;;;18.06;97.53;100023.84;5028951;28;19920;-65
2023/06/29 01:29:53;;;;;;;5.35;3.05;;;;;;;18.01;97.84;100029.53;5047843;28;20064;-64
2023/06/29 01:32:18;;;;;;;6.15;3.20;;;;;;;17.99;98.42;100028.75;5046824;28;20056;-63
2023/06/29 01:34:44;;;;;;;6.05;3.67;;;;;;;18.01;98.38;100024.16;5047361;28;20075;-64
2023/06/29 01:37:13;;;;;;;5.95;3.50;;;;;;;17.97;98.21;100014.53;5047233;28;20037;-65
2023/06/29 01:40:06;;;;;;;4.95;3.03;;;;;;;17.95;98.60;100020.97;5049537;28;20114;-65
2023/06/29 01:42:34;;;;;;;6.60;3.60;;;;;;;17.92;98.54;100016.63;5039334;28;20047;-65
2023/06/29 01:45:02;;;;;;;5.90;3.60;;;;;;;17.91;99.08;100020.31;5049401;28;20527;-64
2023/06/29 01:47:28;;;;;;;6.35;3.40;;;;;;;17.89;99.42;100016.84;5049493;28;20031;-64
2023/06/29 01:49:53;;;;;;;5.72;3.92;;;;;;;17.87;100.00;100016.09;5048877;28;20033;-63
2023/06/29 01:52:19;;;;;;;5.72;3.47;;;;;;;17.88;99.72;100016.94;5047928;28;20025;-63
2023/06/29 01:54:45;;;;;;;6.50;3.53;;;;;;;17.84;99.85;100012.72;5048655;28;20420;-63
2023/06/29 01:57:10;;;;;;;7.20;3.70;;;;;;;17.83;100.00;100014.53;5048499;28;20025;-64
2023/06/29 01:59:36;;;;;;;7.22;4.00;;;;;;;17.81;100.00;100016.44;5047640;28;20040;-64
2023/06/29 02:02:02;;;;;;;4.72;3.40;;;;;;;17.79;100.00;100009.44;5048257;28;20071;-65
2023/06/29 02:04:28;;;;;;;5.97;3.90;;;;;;;17.80;100.00;100017.44;5047275;28;20056;-65
2023/06/29 02:06:53;;;;;;;4.57;3.50;;;;;;;17.79;100.00;100015.69;5048450;28;20485;-65
2023/06/29 02:09:19;;;;;;;7.22;3.83;;;;;;;17.78;100.00;100022.03;5049107;28;20036;-65
2023/06/29 02:11:44;;;;;;;6.45;4.07;;;;;;;17.79;100.00;100012.97;5048445;28;20057;-65
2023/06/29 02:14:09;;;;;;;6.55;3.95;;;;;;;17.73;100.00;100016.06;5048604;28;20105;-64
2023/06/29 02:16:35;;;;;;;6.35;3.63;;;;;;;17.71;100.00;100007.22;5047319;28;20035;-64
2023/06/29 02:19:00;;;;;;;5.75;4.05;;;;;;;17.74;100.00;100017.78;5047720;28;20592;-63
2023/06/29 02:21:26;;;;;;;6.25;4.22;;;;;;;17.73;100.00;100020.56;5046802;28;20498;-63
2023/06/29 02:23:51;;;;;;;6.50;3.92;;;;;;;17.72;100.00;100010.78;5045929;28;20040;-63
2023/06/29 02:26:17;;;;;;;7.30;4.63;;;;;;;17.69;100.00;100016.34;5046912;28;20506;-64
2023/06/29 02:28:42;;;;;;;6.32;4.03;;;;;;;17.67;100.00;100011.06;5045818;28;20025;-64
2023/06/29 02:31:07;;;;;;;7.05;4.40;;;;;;;17.66;100.00;100009.31;5046502;28;20021;-65
2023/06/29 02:33:33;;;;;;;7.18;4.32;;;;;;;17.65;100.00;100007.59;5047446;28;20090;-64
2023/06/29 02:35:58;;;;;;;6.30;4.07;;;;;;;17.64;100.00;100005.88;5048390;28;20078;-64
2023/06/29 02:38:24;;;;;;;6.60;4.30;;;;;;;17.59;100.00;100002.63;5048886;28;20029;-65
2023/06/29 02:40:49;;;;;;;6.85;4.35;;;;;;;17.63;100.00;100014.91;5047925;28;20037;-65
2023/06/29 02:43:15;;;;;;;6.90;4.00;;;;;;;17.63;100.00;100008.63;5048675;28;20434;-64
2023/06/29 02:45:40;;;;;;;9.40;4.10;;;;;;;17.54;100.00;100007.41;5048457;28;20515;-64
2023/06/29 02:48:06;;;;;;;5.78;3.80;;;;;;;17.46;100.00;100006.97;5048200;28;20024;-64
2023/06/29 02:50:31;;;;;;;5.75;4.05;;;;;;;17.42;100.00;100008.09;5048827;28;20025;-65
2023/06/29 02:52:56;;;;;;;5.97;4.03;;;;;;;17.40;100.00;100007.31;5047886;28;20393;-65
2023/06/29 02:55:23;;;;;;;6.72;4.20;;;;;;;17.40;100.00;100001.06;5048682;28;20546;-64
2023/06/29 02:57:48;;;;;;;7.85;4.72;;;;;;;17.40;100.00;100012.69;5048898;28;20055;-65
2023/06/29 03:00:14;;;;;;;7.63;4.50;;;;;;;17.39;100.00;100008.28;5047870;28;20387;-65
2023/06/29 03:02:40;;;;;;;8.95;4.90;;;;;;;17.39;100.00;100010.97;5048141;28;20032;-65
2023/06/29 03:05:05;;;;;;;6.05;4.03;;;;;;;17.41;100.00;100003.69;5052231;28;20400;-65
2023/06/29 03:07:32;;;;;;;5.68;4.10;;;;;;;17.45;100.00;100005.25;5033506;28;20029;-64
2023/06/29 03:09:57;;;;;;;6.25;4.47;;;;;;;17.48;100.00;100005.06;5050234;28;20029;-63
2023/06/29 03:12:23;;;;;;;8.13;4.70;;;;;;;17.48;100.00;99999.69;5048210;28;20397;-65
2023/06/29 03:14:48;;;;;;;6.07;4.13;;;;;;;17.54;100.00;99999.34;5050040;28;20024;-65
2023/06/29 03:17:14;;;;;;;6.60;4.85;;;;;;;17.57;100.00;100009.91;5048203;28;20029;-65
2023/06/29 03:19:40;;;;;;;6.47;3.90;;;;;;;17.58;100.00;100008.06;5046430;28;20065;-63
2023/06/29 03:22:05;;;;;;;7.95;4.40;;;;;;;17.59;100.00;99999.91;5048154;28;20033;-65
2023/06/29 03:24:31;;;;;;;7.80;4.35;;;;;;;17.60;100.00;100007.03;5046948;28;20127;-65
2023/06/29 03:26:57;;;;;;;8.32;5.15;;;;;;;17.62;100.00;100005.09;5045682;28;20024;-65
2023/06/29 03:29:22;;;;;;;6.38;4.68;;;;;;;17.60;100.00;100003.44;5048233;28;20033;-66
2023/06/29 03:31:47;;;;;;;6.22;4.47;;;;;;;17.55;100.00;99995.66;5049920;28;20732;-65
2023/06/29 03:34:13;;;;;;;9.27;4.00;;;;;;;17.55;100.00;99995.66;5048758;28;20064;-65
2023/06/29 03:36:39;;;;;;;11.23;5.10;;;;;;;17.55;100.00;99994.78;5049323;28;20112;-65
2023/06/29 03:39:05;;;;;;;6.50;4.30;;;;;;;17.54;100.00;100002.03;5049816;28;20063;-65
2023/06/29 03:41:30;;;;;;;7.10;4.55;;;;;;;17.55;100.00;99994.78;5050127;28;20112;-65
2023/06/29 03:43:55;;;;;;;7.32;4.97;;;;;;;17.57;100.00;99999.16;5051601;28;20025;-65
2023/06/29 03:46:21;;;;;;;6.60;4.88;;;;;;;17.53;100.00;99994.91;5051693;28;20024;-65
2023/06/29 03:48:47;;;;;;;6.97;4.93;;;;;;;17.55;100.00;99990.28;5050794;28;20096;-65
2023/06/29 03:51:12;;;;;;;8.57;4.50;;;;;;;17.54;100.00;99993.09;5051797;28;20103;-65
2023/06/29 03:53:37;;;;;;;7.38;4.55;;;;;;;17.57;100.00;99999.16;5051710;28;20031;-65
2023/06/29 03:56:03;;;;;;;7.22;4.13;;;;;;;17.62;100.00;99999.72;5051388;28;20388;-65
2023/06/29 03:58:29;;;;;;;7.78;4.70;;;;;;;17.63;100.00;99998.75;5032923;28;20114;-64
2023/06/29 04:00:54;;;;;;;6.88;5.00;;;;;;;17.68;100.00;99996.66;5051658;28;20484;-64
2023/06/29 04:03:20;;;;;;;6.45;4.72;;;;;;;17.67;100.00;99978.78;5050455;28;20044;-65
2023/06/29 04:05:45;;;;;;;6.68;4.60;;;;;;;17.80;100.00;99995.03;5050510;28;20056;-65
2023/06/29 04:08:11;;;;;;;9.15;5.03;;;;;;;17.84;100.00;99997.41;5050009;28;20128;-65
2023/06/29 04:10:36;;;;;;;6.53;5.13;;;;;;;17.82;100.00;99990.41;5049187;28;20090;-64
2023/06/29 04:13:02;;;;;;;6.30;4.18;;;;;;;17.90;100.00;99988.09;5048898;28;20056;-65
2023/06/29 04:15:27;;;;;;;8.77;5.40;;;;;;;17.98;100.00;99993.88;5047944;28;20086;-65
2023/06/29 04:17:53;;;;;;;9.02;4.35;;;;;;;18.01;100.00;99991.84;5048229;28;20029;-65
2023/06/29 04:20:18;;;;;;;7.25;5.00;;;;;;;18.06;100.00;99992.44;5048502;28;20025;-64
2023/06/29 04:22:44;;;;;;;6.50;4.53;;;;;;;18.12;100.00;99999.25;5047547;28;20033;-66
2023/06/29 04:25:09;;;;;;;7.45;4.90;;;;;;;18.11;100.00;99986.75;5049085;28;20033;-65
2023/06/29 04:27:35;;;;;;;6.38;4.47;;;;;;;18.21;100.00;99993.28;5050896;28;20098;-65
2023/06/29 04:30:03;;;;;;;6.25;4.38;;;;;;;18.25;100.00;99984.91;5050041;28;20111;-64
2023/06/29 04:32:30;;;;;;;6.47;4.55;;;;;;;18.31;100.00;99979.13;5050438;28;20031;-65
2023/06/29 04:34:55;;;;;;;6.38;4.40;;;;;;;18.45;99.66;99982.78;5049964;28;20101;-65
2023/06/29 04:37:20;;;;;;;12.55;4.97;;;;;;;18.56;99.02;99988.34;5049526;28;20025;-65
2023/06/29 04:39:46;;;;;;;6.70;4.78;;;;;;;18.63;98.38;99986.97;5049944;28;20025;-65
2023/06/29 04:42:13;;;;;;;5.80;4.13;;;;;;;18.71;98.32;99990.91;5050089;28;20047;-64
2023/06/29 04:44:43;;;;;;;9.48;5.25;;;;;;;18.75;98.36;99989.72;5050061;28;20079;-64
2023/06/29 04:47:10;;;;;;;6.30;4.85;;;;;;;18.80;97.68;99981.31;5050422;28;20029;-65
2023/06/29 04:49:40;;;;;;;7.53;5.30;;;;;;;18.97;97.28;99983.75;5050267;28;20029;-65
2023/06/29 04:52:10;;;;;;;9.75;4.95;;;;;;;19.10;96.30;99985.53;5049011;28;20032;-64
2023/06/29 04:54:35;;;;;;;6.78;5.03;;;;;;;19.24;96.33;99987.28;5050356;28;20037;-66
2023/06/29 04:57:01;;;;;;;7.47;5.18;;;;;;;19.43;95.13;99979.69;5050344;28;20059;-65
2023/06/29 04:59:28;;;;;;;8.13;5.38;;;;;;;19.59;94.29;99974.94;5050218;28;20024;-65
2023/06/29 05:01:54;;;;;;;10.82;5.50;;;;;;;19.77;94.04;99979.03;5049230;28;20082;-65
2023/06/29 05:04:19;;;;;;;8.77;5.30;;;;;;;19.94;92.35;99976.00;5049170;28;20025;-65
2023/06/29 05:06:44;;;;;;;6.53;5.03;;;;;;;20.07;90.33;99968.75;5048106;28;20021;-65
2023/06/29 05:09:10;;;;;;;8.43;5.28;;;;;;;20.10;88.41;99963.13;5047335;28;20036;-65
2023/06/29 05:11:35;;;;;;;6.68;4.75;;;;;;;20.23;88.01;99957.75;5047722;28;20029;-63
2023/06/29 05:14:01;;;;;;;6.65;4.68;;;;;;;20.34;86.30;99956.00;5047543;28;20059;-64
2023/06/29 05:16:26;;;;;;;7.93;5.47;;;;;;;20.44;86.92;99959.75;5047583;28;20036;-64
2023/06/29 05:18:52;;;;;;;8.57;4.88;;;;;;;20.49;86.03;99962.09;5047503;28;20032;-63
2023/06/29 05:21:17;;;;;;;7.13;5.07;;;;;;;20.68;85.90;99957.91;5047814;28;20037;-64
2023/06/29 05:23:43;;;;;;;11.10;5.43;;;;;;;20.90;85.18;99954.47;5049231;28;20341;-64
2023/06/29 05:26:08;;;;;;;6.68;5.28;;;;;;;21.03;83.18;99955.28;5048812;28;20116;-64
2023/06/29 05:28:36;;;;;;;7.65;5.13;;;;;;;21.16;81.19;99969.59;5047450;28;20101;-63
2023/06/29 05:31:02;;;;;;;6.35;4.50;;;;;;;21.31;81.32;99963.00;5047991;28;20024;-63
2023/06/29 05:33:27;;;;;;;6.03;4.80;;;;;;;21.28;78.92;99959.69;5049326;28;20455;-64
2023/06/29 05:35:53;;;;;;;7.78;4.90;;;;;;;21.40;78.51;99972.25;5048969;28;20025;-64
2023/06/29 05:38:18;;;;;;;8.93;5.30;;;;;;;21.51;78.43;99975.88;5049997;28;20063;-63
2023/06/29 05:40:43;;;;;;;9.18;5.25;;;;;;;21.60;76.50;99961.59;5048991;28;20025;-63
2023/06/29 05:43:09;;;;;;;7.13;4.72;;;;;;;21.57;75.18;99969.09;5048714;28;20028;-63
2023/06/29 05:45:36;;;;;;;7.63;4.75;;;;;;;21.64;75.09;99960.38;5048271;28;20061;-63
2023/06/29 05:48:01;;;;;;;10.05;5.38;;;;;;;21.82;75.15;99960.78;5047792;28;20037;-64
2023/06/29 05:50:27;;;;;;;8.68;5.03;;;;;;;21.98;75.38;99967.56;5047074;28;20687;-64
2023/06/29 05:52:52;;;;;;;7.15;5.43;;;;;;;22.05;74.09;99962.53;5046509;28;20021;-63
2023/06/29 05:55:19;;;;;;;9.07;5.40;;;;;;;22.13;75.02;99962.78;5047423;28;20570;-63
2023/06/29 05:57:44;;;;;;;9.85;5.45;;;;;;;22.21;74.30;99960.28;5044604;28;20449;-62
2023/06/29 06:00:12;;;;;;;7.68;4.85;;;;;;;22.31;74.07;99957.69;5047459;28;20051;-64
2023/06/29 06:02:39;;;;;;;5.78;4.32;;;;;;;22.44;74.35;99956.56;5045758;28;20017;-62
2023/06/29 06:05:07;;;;;;;7.82;4.53;;;;;;;22.59;74.07;99959.91;5046539;28;20052;-62
2023/06/29 06:07:34;;;;;;;7.50;4.68;;;;;;;22.66;74.23;99961.13;5045401;28;20093;-63
2023/06/29 06:09:59;;;;;;;7.95;4.63;;;;;;;22.67;73.20;99957.44;5047046;28;20028;-64
2023/06/29 06:12:25;;;;;;;6.47;4.05;;;;;;;22.70;72.80;99958.03;5046844;28;20090;-64
2023/06/29 06:14:51;;;;;;;5.97;3.95;;;;;;;22.74;72.87;99959.50;5046747;28;20416;-63
2023/06/29 06:17:17;;;;;;;7.82;4.40;;;;;;;22.74;71.85;99967.63;5033673;28;20577;-63
2023/06/29 06:19:43;;;;;;;10.25;4.57;;;;;;;22.80;71.95;99958.97;5047832;28;20031;-62
2023/06/29 06:22:08;;;;;;;5.85;3.85;;;;;;;22.86;71.65;99965.75;5046105;28;20091;-63
2023/06/29 06:24:34;;;;;;;7.18;4.07;;;;;;;22.88;71.35;99967.31;5047902;28;20021;-63
2023/06/29 06:27:00;;;;;;;7.35;3.95;;;;;;;23.01;70.82;99964.47;5047748;28;20406;-64
2023/06/29 06:29:26;;;;;;;12.32;4.05;;;;;;;23.04;70.02;99965.06;5047309;28;20040;-64
2023/06/29 06:31:51;;;;;;;13.38;4.65;;;;;;;23.16;70.77;99963.16;5038868;28;20033;-59
2023/06/29 06:34:16;;;;;;;6.22;3.60;;;;;;;23.22;69.43;99970.78;5045842;28;20025;-59
2023/06/29 06:36:42;;;;;;;10.43;4.22;;;;;;;23.28;70.85;99965.72;5046554;28;20148;-59
2023/06/29 06:39:07;;;;;;;8.30;3.70;;;;;;;23.23;71.95;99973.38;5021446;28;20057;-59
2023/06/29 06:41:33;;;;;;;6.97;4.90;;;;;;;23.21;72.16;99966.34;5031410;28;20341;-59
2023/06/29 06:43:59;;;;;;;10.50;3.97;;;;;;;23.08;72.28;99961.09;5048662;28;20112;-59
2023/06/29 06:46:24;;;;;;;8.50;5.68;;;;;;;23.02;73.12;99972.47;5047480;28;20137;-60
2023/06/29 06:48:50;;;;;;;7.10;4.47;;;;;;;23.01;73.17;99970.75;5050855;28;20099;-58
2023/06/29 06:51:15;;;;;;;7.35;3.80;;;;;;;23.01;72.53;99969.88;5049592;28;20393;-59
2023/06/29 06:53:40;;;;;;;8.60;5.13;;;;;;;23.00;73.14;99974.44;5050017;28;20037;-59
2023/06/29 06:56:06;;;;;;;6.20;4.40;;;;;;;22.95;73.80;99968.53;5049227;28;20587;-60
2023/06/29 06:58:31;;;;;;;9.63;4.20;;;;;;;23.09;72.86;99970.97;5049908;28;20028;-60
2023/06/29 07:00:57;;;;;;;7.85;4.68;;;;;;;23.24;73.09;99971.53;5047654;28;20436;-58
2023/06/29 07:03:23;;;;;;;10.23;5.43;;;;;;;23.44;71.59;99943.56;5047205;28;20671;-59
2023/06/29 07:05:49;;;;;;;10.68;4.63;;;;;;;24.06;69.54;99978.81;5028743;28;20087;-59
2023/06/29 07:08:15;;;;;;;9.75;4.43;;;;;;;24.22;67.88;99962.84;5047646;28;20114;-60
2023/06/29 07:10:40;;;;;;;7.88;3.97;;;;;;;24.53;68.30;99961.81;5048808;28;20536;-59
2023/06/29 07:13:05;;;;;;;7.93;3.90;;;;;;;24.64;64.90;99965.28;5048525;28;20025;-59
2023/06/29 07:15:31;;;;;;;5.57;4.07;;;;;;;24.96;63.37;99959.63;5050164;28;20074;-59
2023/06/29 07:17:56;;;;;;;6.13;4.15;;;;;;;25.20;62.06;99964.66;5050395;28;20029;-59
2023/06/29 07:20:22;;;;;;;7.38;4.82;;;;;;;25.45;60.55;99958.69;5031606;28;20029;-59
2023/06/29 07:22:48;;;;;;;5.90;3.83;;;;;;;25.54;59.22;99936.88;5050194;28;20025;-59
2023/06/29 07:25:14;;;;;;;8.18;3.75;;;;;;;25.83;59.94;99956.72;5044218;28;20061;-59
2023/06/29 07:27:39;;;;;;;6.28;3.70;;;;;;;25.79;58.38;99959.91;5050182;28;20070;-59
2023/06/29 07:30:06;;;;;;;5.28;3.67;;;;;;;25.74;58.83;99957.63;5044433;28;20396;-59
2023/06/29 07:32:31;;;;;;;5.93;3.80;;;;;;;25.73;58.73;99955.88;5050003;28;20029;-59
2023/06/29 07:34:56;;;;;;;4.95;3.83;;;;;;;26.04;57.76;99953.84;5049737;28;20515;-59
2023/06/29 07:37:23;;;;;;;5.75;3.47;;;;;;;26.33;57.33;99950.97;5040439;28;20040;-59
2023/06/29 07:39:48;;;;;;;6.35;3.60;;;;;;;26.50;55.67;99956.47;5049558;28;20044;-59
2023/06/29 07:42:13;;;;;;;4.22;3.20;;;;;;;26.66;55.36;99956.69;5050172;28;20021;-59
2023/06/29 07:44:39;;;;;;;6.30;3.40;;;;;;;26.70;55.83;99968.19;5048206;28;20123;-59
2023/06/29 07:47:04;;;;;;;5.45;3.40;;;;;;;26.91;54.76;99957.81;5048688;28;20652;-59
2023/06/29 07:49:30;;;;;;;9.32;3.45;;;;;;;27.05;54.89;99951.84;5047375;28;20041;-59
2023/06/29 07:51:56;;;;;;;5.60;2.95;;;;;;;27.19;54.81;99959.47;5047616;28;20024;-59
2023/06/29 07:54:22;;;;;;;5.85;3.15;;;;;;;27.26;54.62;99963.31;5046714;28;20021;-59
2023/06/29 07:56:47;;;;;;;6.43;3.38;;;;;;;27.31;54.22;99958.25;5028307;28;20688;-59
2023/06/29 07:59:13;;;;;;;6.40;3.85;;;;;;;27.39;55.35;99957.47;5029983;28;20028;-61
2023/06/29 08:01:38;;;;;;;7.55;3.40;;;;;;;27.80;56.27;99949.41;5034426;28;20033;-61
2023/06/29 08:04:04;;;;;;;5.43;3.53;;;;;;;28.10;53.19;99956.31;5011062;28;20030;-60
2023/06/29 08:06:31;;;;;;;5.57;3.13;;;;;;;28.44;50.64;99957.16;5044797;28;20045;-61
2023/06/29 08:08:57;;;;;;;7.05;3.50;;;;;;;28.40;49.22;99953.03;5046288;28;20033;-62
2023/06/29 08:11:22;;;;;;;7.28;3.03;;;;;;;28.42;49.53;99960.06;5046106;28;20029;-62
2023/06/29 08:13:47;;;;;;;5.75;2.63;;;;;;;28.90;48.67;99961.25;5036010;28;20036;-62
2023/06/29 08:16:14;;;;;;;7.97;2.92;;;;;;;29.23;46.71;99952.97;5047767;28;20058;-62
2023/06/29 08:18:39;;;;;;;5.07;2.90;;;;;;;29.30;48.36;99958.63;5046854;28;20028;-62
2023/06/29 08:21:05;;;;;;;6.47;3.22;;;;;;;29.09;49.07;99961.00;5045356;28;20044;-62
2023/06/29 08:23:33;;;;;;;6.65;3.70;;;;;;;29.19;47.86;99956.22;5046668;28;20095;-62
2023/06/29 08:25:58;;;;;;;4.55;2.75;;;;;;;29.17;47.54;99953.66;5035473;28;20022;-62
2023/06/29 08:28:24;;;;;;;5.15;2.90;;;;;;;28.84;46.75;99959.19;5030552;28;20465;-61
2023/06/29 08:30:51;;;;;;;5.55;3.35;;;;;;;28.66;48.78;99953.00;5048281;28;20120;-61
2023/06/29 08:33:16;;;;;;;6.82;3.40;;;;;;;28.75;48.13;99952.84;5048868;28;20021;-61
2023/06/29 08:35:42;;;;;;;4.97;2.90;;;;;;;28.78;48.01;99946.19;5046383;28;20078;-62
2023/06/29 08:38:07;;;;;;;8.05;3.33;;;;;;;28.84;47.90;99945.50;5046373;28;20029;-60
2023/06/29 08:40:35;;;;;;;6.53;3.38;;;;;;;28.80;49.86;99946.88;5044358;28;20116;-60
2023/06/29 08:43:00;;;;;;;6.10;3.20;;;;;;;28.61;48.71;99947.16;5042058;28;20244;-62
2023/06/29 08:45:26;;;;;;;4.03;2.65;;;;;;;28.50;48.96;99951.03;5040603;28;20033;-62
2023/06/29 08:47:53;;;;;;;4.30;2.53;;;;;;;28.71;49.36;99946.00;5034173;28;20025;-62
2023/06/29 08:50:24;;;;;;;5.70;3.20;;;;;;;28.93;49.91;99945.34;5041991;28;20094;-63
2023/06/29 08:52:50;;;;;;;4.32;3.00;;;;;;;29.74;46.76;99940.81;5044368;28;20765;-62
2023/06/29 08:55:16;;;;;;;8.85;5.45;;;;;;;30.46;45.26;99948.03;5036278;28;20040;-62
2023/06/29 08:57:41;;;;;;;8.40;3.17;;;;;;;30.87;42.87;99944.09;5037672;28;20032;-62
2023/06/29 09:00:08;;;;;;;5.60;2.80;;;;;;;31.45;43.24;99940.78;5038551;28;20053;-62
2023/06/29 09:02:35;;;;;;;4.45;2.50;;;;;;;31.95;41.95;99939.09;5047143;28;20664;-62
2023/06/29 09:05:02;;;;;;;4.57;2.28;;;;;;;31.48;41.25;99940.41;5044981;28;20052;-65
2023/06/29 09:07:27;;;;;;;5.40;2.05;;;;;;;31.20;40.68;99945.56;5048458;28;20024;-65
2023/06/29 09:09:53;;;;;;;6.75;2.70;;;;;;;30.86;41.32;99934.97;5048696;28;20031;-65
2023/06/29 09:12:18;;;;;;;6.00;2.47;;;;;;;30.57;42.65;99933.91;5048897;28;20025;-65
2023/06/29 09:14:47;;;;;;;5.72;2.55;;;;;;;31.18;43.30;99936.66;5050080;28;20031;-65
2023/06/29 09:17:14;;;;;;;7.18;2.53;;;;;;;31.76;42.54;99927.75;5049006;28;20031;-65
2023/06/29 09:19:43;;;;;;;4.82;2.53;;;;;;;32.48;40.83;99929.75;5046676;28;20111;-65
2023/06/29 09:22:09;;;;;;;4.07;2.15;;;;;;;32.32;39.39;99918.03;5041423;28;20117;-64
2023/06/29 09:24:35;;;;;;;6.70;2.20;;;;;;;32.31;39.23;99921.84;5046313;28;20125;-64
2023/06/29 09:27:01;;;;;;;5.13;2.63;;;;;;;32.24;39.11;99927.22;5048804;28;20109;-62
2023/06/29 09:29:27;;;;;;;5.18;2.83;;;;;;;32.22;39.89;99912.81;5049755;28;20024;-64
2023/06/29 09:31:54;;;;;;;5.60;2.38;;;;;;;32.22;40.07;99918.34;5049156;28;20471;-64
2023/06/29 09:34:27;;;;;;;3.08;1.95;;;;;;;32.05;40.53;99916.81;5041420;28;20040;-63
2023/06/29 09:36:54;;;;;;;4.93;2.90;;;;;;;31.70;41.42;99910.09;5043474;28;20025;-66
2023/06/29 09:39:20;;;;;;;3.65;2.20;;;;;;;31.39;42.76;99919.50;5037404;28;20025;-66
2023/06/29 09:41:54;;;;;;;4.50;2.22;;;;;;;31.20;43.30;99918.09;5048345;28;20111;-66
2023/06/29 09:44:23;;;;;;;6.18;2.53;;;;;;;30.88;42.14;99912.81;5048629;28;20040;-66
2023/06/29 09:46:50;;;;;;;5.05;2.50;;;;;;;30.67;43.19;99923.56;5046805;28;20377;-66
2023/06/29 09:49:15;;;;;;;4.10;2.03;;;;;;;30.47;43.07;99922.28;5046620;28;20059;-66
2023/06/29 09:51:41;;;;;;;4.75;2.55;;;;;;;30.35;43.17;99921.81;5046376;28;20056;-65
2023/06/29 09:54:12;;;;;;;3.60;2.40;;;;;;;30.20;42.90;99909.00;5045824;28;20035;-66
2023/06/29 09:56:37;;;;;;;5.88;2.45;;;;;;;30.18;43.20;99911.88;5044827;28;20029;-66
2023/06/29 09:59:04;;;;;;;4.70;1.92;;;;;;;29.86;44.04;99913.88;5028273;28;20025;-66
2023/06/29 10:01:30;;;;;;;5.78;2.60;;;;;;;29.81;44.64;99908.94;5048190;28;20047;-66
2023/06/29 10:03:56;;;;;;;4.03;2.45;;;;;;;29.86;44.92;99912.00;5047553;28;20029;-66
2023/06/29 10:06:33;;;;;;;5.53;2.60;;;;;;;29.96;44.28;99912.66;5049163;28;20110;-66
2023/06/29 10:09:00;;;;;;;4.38;2.50;;;;;;;29.90;44.35;99898.81;5048474;28;20450;-65
2023/06/29 10:11:30;;;;;;;4.55;2.88;;;;;;;29.81;44.83;99908.94;5048910;28;20381;-66
2023/06/29 10:14:00;;;;;;;5.60;2.58;;;;;;;29.76;45.01;99910.47;5048351;28;20033;-65
2023/06/29 10:16:26;;;;;;;6.03;2.30;;;;;;;29.65;47.40;99908.94;5048667;28;20108;-66
2023/06/29 10:19:01;;;;;;;8.68;3.30;;;;;;;29.74;47.42;99902.41;5048646;28;20029;-66
2023/06/29 10:21:27;;;;;;;3.40;2.40;;;;;;;29.67;44.86;99901.41;5048649;28;20032;-65
2023/06/29 10:23:54;;;;;;;6.70;2.45;;;;;;;29.77;47.67;99903.97;5049035;28;20025;-65
2023/06/29 10:26:20;;;;;;;3.80;2.63;;;;;;;29.95;44.69;99905.44;5049109;28;20560;-66
2023/06/29 10:28:45;;;;;;;7.35;3.08;;;;;;;30.36;43.23;99914.44;5029940;28;20492;-66
2023/06/29 10:31:15;;;;;;;4.60;2.80;;;;;;;30.66;42.69;99908.97;5049179;28;20123;-66
2023/06/29 10:33:51;;;;;;;8.23;2.70;;;;;;;31.15;42.11;99908.66;5048343;28;20423;-66
2023/06/29 10:36:17;;;;;;;8.60;2.40;;;;;;;31.34;40.07;99900.81;5031263;28;20082;-66
2023/06/29 10:38:42;;;;;;;8.15;3.10;;;;;;;31.61;40.84;99900.22;5048722;28;20017;-66
2023/06/29 10:41:26;;;;;;;7.45;2.20;;;;;;;31.93;40.45;99901.78;5047560;28;20055;-66
2023/06/29 10:44:00;;;;;;;4.38;2.17;;;;;;;32.07;41.32;99898.22;5047237;28;20025;-67
2023/06/29 10:46:43;;;;;;;3.17;1.95;;;;;;;31.89;39.70;99894.97;5046286;28;20059;-66
2023/06/29 10:49:20;;;;;;;3.88;1.90;;;;;;;31.85;39.64;99888.09;5035986;28;20227;-66
2023/06/29 10:51:55;;;;;;;4.97;2.30;;;;;;;31.89;39.13;99883.97;5046892;28;20017;-66
2023/06/29 10:54:24;;;;;;;5.65;2.40;;;;;;;31.77;39.93;99885.44;5027561;28;20385;-67
2023/06/29 10:57:07;;;;;;;5.05;2.30;;;;;;;31.52;41.00;99881.22;5045981;28;20029;-66
2023/06/29 10:59:34;;;;;;;5.07;2.10;;;;;;;31.37;42.60;99883.09;5047031;28;20035;-66
2023/06/29 11:02:00;;;;;;;3.05;1.80;;;;;;;31.23;42.75;99881.97;5047894;28;20029;-66
2023/06/29 11:04:27;;;;;;;3.10;1.58;;;;;;;31.17;40.09;99890.13;5048219;28;20429;-65
2023/06/29 11:06:53;;;;;;;3.10;1.92;;;;;;;31.03;41.87;99882.66;5047841;28;20035;-66
2023/06/29 11:09:19;;;;;;;6.00;2.00;;;;;;;30.86;42.15;99885.53;5048682;28;20104;-66
2023/06/29 11:11:50;;;;;;;4.10;2.00;;;;;;;30.92;41.88;99880.34;5029553;28;20029;-65
2023/06/29 11:14:16;;;;;;;5.50;2.17;;;;;;;30.83;40.31;99890.53;5047372;28;20511;-66
2023/06/29 11:16:42;;;;;;;7.88;2.08;;;;;;;30.88;41.41;99880.72;5048554;28;20025;-66
2023/06/29 11:19:07;;;;;;;4.53;2.30;;;;;;;31.17;41.81;99890.13;5048361;28;20495;-66
2023/06/29 11:21:33;;;;;;;3.80;2.08;;;;;;;31.11;39.87;99883.44;5047604;28;20029;-66
2023/06/29 11:23:59;;;;;;;3.95;2.10;;;;;;;31.08;42.81;99877.47;5048288;28;20017;-66
2023/06/29 11:26:26;;;;;;;5.43;2.00;;;;;;;31.29;40.74;99874.88;5051157;28;20389;-65